| time (UTC) | temp F | wind direction | speed knots | gust knots | rain 1hr in | rain 24hr in | rain mn in | humidity % | barometer mb |
| 20260505065454 | 56 | 103 | 2.6 | 4.3 | 0.00 | 0.05 | 0.00 | 60 | 1009.1 |
| 20260505064639 | 56 | 100 | 2.6 | 2.6 | 0.00 | 0.05 | 0.00 | 60 | 1009.1 |
| 20260505063759 | 56 | 99 | 0.9 | 5.2 | 0.00 | 0.05 | 0.00 | 59 | 1008.8 |
| 20260505062957 | 56 | 56 | 1.7 | 2.6 | 0.00 | 0.05 | 0.00 | 59 | 1008.6 |
| 20260505062112 | 56 | 56 | 1.7 | 6.1 | 0.00 | 0.05 | 0.00 | 59 | 1008.7 |
| 20260505061114 | 56 | 84 | 0.9 | 1.7 | 0.00 | 0.05 | 0.00 | 60 | 1008.7 |
| 20260505060304 | 57 | 139 | 0.0 | 0.9 | 0.00 | 0.05 | 0.00 | 59 | 1008.7 |
| 20260505055329 | 58 | 109 | 0.0 | 0.9 | 0.00 | 0.05 | 0.00 | 57 | 1008.6 |
| 20260505054409 | 58 | 83 | 0.9 | 1.7 | 0.00 | 0.05 | 0.00 | 57 | 1008.7 |
| 20260505053448 | 58 | 115 | 1.7 | 7.0 | 0.00 | 0.05 | 0.00 | 56 | 1008.8 |
| 20260505052554 | 59 | 107 | 2.6 | 7.0 | 0.00 | 0.05 | 0.00 | 56 | 1008.9 |
| 20260505051604 | 59 | 104 | 2.6 | 7.0 | 0.00 | 0.05 | 0.00 | 54 | 1008.6 |
| 20260505050609 | 59 | 93 | 2.6 | 7.0 | 0.00 | 0.05 | 0.00 | 52 | 1008.8 |
| 20260505041404 | 61 | 54 | 4.3 | 9.6 | 0.00 | 0.05 | 0.00 | 50 | 1008.6 |
| 20260505040504 | 61 | 68 | 4.3 | 12.2 | 0.00 | 0.05 | 0.00 | 48 | 1009.0 |
| 20260505035609 | 62 | 49 | 0.9 | 7.8 | 0.00 | 0.05 | 0.00 | 48 | 1008.9 |
| 20260505034629 | 62 | 55 | 1.7 | 7.0 | 0.00 | 0.05 | 0.00 | 49 | 1008.8 |
| 20260505033824 | 63 | 109 | 3.5 | 8.7 | 0.00 | 0.05 | 0.00 | 48 | 1008.6 |
| 20260505032947 | 63 | 99 | 4.3 | 11.3 | 0.00 | 0.05 | 0.00 | 47 | 1008.7 |
| 20260505032044 | 64 | 125 | 1.7 | 4.3 | 0.00 | 0.05 | 0.00 | 42 | 1008.6 |
| 20260505031204 | 64 | 101 | 0.9 | 4.3 | 0.00 | 0.05 | 0.00 | 40 | 1008.2 |
| 20260505030233 | 64 | 337 | 1.7 | 5.2 | 0.00 | 0.05 | 0.00 | 40 | 1008.1 |
| 20260505025359 | 64 | 343 | 0.9 | 7.0 | 0.00 | 0.05 | 0.00 | 41 | 1008.1 |
| 20260505024444 | 64 | 334 | 4.3 | 8.7 | 0.00 | 0.05 | 0.00 | 41 | 1007.8 |
| 20260505023609 | 64 | 326 | 4.3 | 7.8 | 0.00 | 0.05 | 0.00 | 43 | 1008.0 |
| 20260505022712 | 65 | 302 | 5.2 | 11.3 | 0.00 | 0.05 | 0.00 | 43 | 1008.0 |
| 20260505021719 | 65 | 324 | 5.2 | 9.6 | 0.00 | 0.05 | 0.00 | 42 | 1007.6 |
| 20260505020744 | 66 | 319 | 5.2 | 12.2 | 0.00 | 0.05 | 0.00 | 42 | 1007.5 |
| 20260505015804 | 67 | 307 | 5.2 | 13.0 | 0.00 | 0.05 | 0.00 | 42 | 1007.5 |
| 20260505014929 | 68 | 297 | 6.1 | 17.4 | 0.00 | 0.05 | 0.00 | 37 | 1007.4 |
| 20260505013957 | 69 | 306 | 8.7 | 17.4 | 0.00 | 0.05 | 0.00 | 34 | 1007.2 |
| 20260505013054 | 70 | 242 | 2.6 | 7.0 | 0.00 | 0.05 | 0.00 | 31 | 1006.8 |
| 20260505012252 | 70 | 251 | 2.6 | 7.0 | 0.00 | 0.05 | 0.00 | 32 | 1006.7 |
| 20260505011344 | 70 | 228 | 2.6 | 6.1 | 0.00 | 0.05 | 0.00 | 31 | 1006.6 |
| 20260505010509 | 71 | 140 | 1.7 | 4.3 | 0.00 | 0.05 | 0.00 | 31 | 1006.8 |
| 20260505005554 | 72 | 191 | 1.7 | 7.8 | 0.00 | 0.05 | 0.00 | 30 | 1006.9 |
| 20260505004710 | 73 | 171 | 2.6 | 7.0 | 0.00 | 0.05 | 0.00 | 30 | 1006.9 |
| 20260505003836 | 74 | 167 | 2.6 | 11.3 | 0.00 | 0.05 | 0.00 | 29 | 1006.8 |
| 20260505002949 | 74 | 183 | 0.9 | 5.2 | 0.00 | 0.05 | 0.00 | 29 | 1006.8 |
| 20260505002016 | 73 | 174 | 0.9 | 7.8 | 0.00 | 0.05 | 0.00 | 30 | 1006.9 |
| 20260505001029 | 72 | 184 | 2.6 | 8.7 | 0.00 | 0.05 | 0.00 | 31 | 1007.2 |
| 20260505000230 | 72 | 160 | 2.6 | 7.0 | 0.00 | 0.05 | 0.00 | 32 | 1007.2 |
| 20260504235324 | 70 | 173 | 1.7 | 8.7 | 0.00 | 0.05 | 0.00 | 35 | 1007.3 |
| 20260504234339 | 71 | 167 | 3.5 | 13.9 | 0.00 | 0.05 | 0.00 | 35 | 1007.4 |
| 20260504233429 | 71 | 203 | 3.5 | 13.9 | 0.00 | 0.05 | 0.00 | 35 | 1007.6 |
| 20260504232529 | 73 | 154 | 6.1 | 14.8 | 0.00 | 0.05 | 0.00 | 33 | 1007.5 |
| 20260504231539 | 73 | 188 | 2.6 | 7.0 | 0.00 | 0.05 | 0.00 | 31 | 1007.7 |
| 20260504230549 | 73 | 185 | 1.7 | 6.1 | 0.00 | 0.05 | 0.00 | 32 | 1007.6 |
| 20260504225659 | 72 | 186 | 1.7 | 7.0 | 0.00 | 0.05 | 0.00 | 34 | 1007.4 |
| 20260504224846 | 72 | 177 | 1.7 | 7.0 | 0.00 | 0.05 | 0.00 | 35 | 1007.6 |
| 20260504224019 | 72 | 154 | 2.6 | 7.8 | 0.00 | 0.05 | 0.00 | 34 | 1007.5 |
| 20260504223044 | 71 | 181 | 2.6 | 8.7 | 0.00 | 0.05 | 0.00 | 34 | 1007.6 |
| 20260504222129 | 72 | 156 | 1.7 | 7.0 | 0.00 | 0.05 | 0.00 | 34 | 1007.8 |
| 20260504221229 | 72 | 191 | 1.7 | 7.8 | 0.00 | 0.05 | 0.00 | 34 | 1007.6 |
| 20260504220352 | 72 | 204 | 3.5 | 8.7 | 0.00 | 0.05 | 0.00 | 34 | 1007.9 |
| 20260504215402 | 72 | 151 | 2.6 | 9.6 | 0.00 | 0.05 | 0.00 | 33 | 1007.9 |
| 20260504214559 | 72 | 182 | 2.6 | 9.6 | 0.00 | 0.05 | 0.00 | 33 | 1008.1 |
| 20260504213619 | 73 | 149 | 1.7 | 8.7 | 0.00 | 0.05 | 0.00 | 36 | 1008.3 |
| 20260504212732 | 73 | 235 | 1.7 | 6.1 | 0.00 | 0.05 | 0.00 | 32 | 1008.4 |
| 20260504211744 | 73 | 260 | 1.7 | 5.2 | 0.00 | 0.05 | 0.00 | 31 | 1008.6 |
| 20260504211016 | 73 | 176 | 1.7 | 6.1 | 0.00 | 0.05 | 0.00 | 31 | 1008.4 |
| 20260504210943 | 73 | 176 | 1.7 | 6.1 | 0.00 | 0.05 | 0.00 | 31 | 1008.4 |
| 20260504210019 | 74 | 151 | 2.6 | 7.0 | 0.00 | 0.05 | 0.00 | 32 | 1008.3 |
| 20260504205049 | 74 | 179 | 1.7 | 5.2 | 0.00 | 0.05 | 0.00 | 32 | 1008.5 |
| 20260504204133 | 73 | 141 | 0.9 | 4.3 | 0.00 | 0.05 | 0.00 | 31 | 1008.5 |
| 20260504203319 | 73 | 222 | 0.9 | 7.8 | 0.00 | 0.05 | 0.00 | 30 | 1008.8 |
| 20260504202409 | 72 | 271 | 2.6 | 8.7 | 0.00 | 0.05 | 0.00 | 33 | 1008.8 |
| 20260504201519 | 72 | 329 | 1.7 | 8.7 | 0.00 | 0.05 | 0.00 | 34 | 1008.9 |
| 20260504200559 | 71 | 253 | 2.6 | 7.0 | 0.00 | 0.05 | 0.00 | 35 | 1009.0 |
| 20260504195739 | 70 | 288 | 0.9 | 6.1 | 0.00 | 0.05 | 0.00 | 34 | 1009.4 |
| 20260504194854 | 70 | 240 | 3.5 | 11.3 | 0.00 | 0.05 | 0.00 | 37 | 1009.6 |
| 20260504193959 | 70 | 303 | 4.3 | 11.3 | 0.00 | 0.05 | 0.00 | 36 | 1009.5 |
| 20260504193149 | 70 | 323 | 3.5 | 8.7 | 0.00 | 0.05 | 0.00 | 36 | 1009.6 |
| 20260504192348 | 70 | 278 | 4.3 | 11.3 | 0.00 | 0.05 | 0.00 | 38 | 1009.8 |
| 20260504191526 | 70 | 348 | 0.9 | 4.3 | 0.00 | 0.05 | 0.00 | 40 | 1009.8 |
| 20260504190714 | 68 | 357 | 1.7 | 5.2 | 0.00 | 0.05 | 0.00 | 39 | 1010.1 |
| 20260504185734 | 67 | 342 | 1.7 | 5.2 | 0.00 | 0.05 | 0.00 | 43 | 1010.1 |
| 20260504184844 | 67 | 55 | 1.7 | 7.0 | 0.00 | 0.05 | 0.00 | 41 | 1010.4 |
| 20260504183959 | 67 | 317 | 4.3 | 7.0 | 0.00 | 0.05 | 0.00 | 42 | 1010.6 |
| 20260504183109 | 66 | 45 | 2.6 | 7.0 | 0.00 | 0.05 | 0.00 | 46 | 1011.0 |
| 20260504182229 | 64 | 312 | 4.3 | 7.0 | 0.00 | 0.05 | 0.00 | 49 | 1011.0 |
| 20260504181319 | 63 | 337 | 0.9 | 2.6 | 0.03 | 0.05 | 0.00 | 51 | 1011.1 |
| 20260504180424 | 62 | 334 | 0.9 | 2.6 | 0.04 | 0.05 | 0.00 | 60 | 1011.3 |
| 20260504175552 | 61 | 354 | 0.9 | 2.6 | 0.04 | 0.05 | 0.00 | 64 | 1011.6 |
| 20260504174612 | 60 | 20 | 0.9 | 2.6 | 0.04 | 0.05 | 0.00 | 69 | 1011.5 |
| 20260504173712 | 61 | 2 | 0.9 | 0.0 | 0.04 | 0.05 | 0.00 | 69 | 1011.7 |
| 20260504172859 | 62 | 341 | 0.9 | 8.7 | 0.04 | 0.05 | 0.00 | 66 | 1011.6 |
| 20260504171919 | 64 | 315 | 2.6 | 6.1 | 0.03 | 0.04 | 0.00 | 59 | 1012.1 |
| 20260504171119 | 65 | 14 | 1.7 | 6.1 | 0.01 | 0.02 | 0.00 | 52 | 1011.6 |
| 20260504170159 | 65 | 45 | 2.6 | 8.7 | 0.00 | 0.01 | 0.00 | 44 | 1011.5 |
| 20260504150509 | 61 | 146 | 3.5 | 13.9 | 0.00 | 0.00 | 0.00 | 49 | 1012.9 |
| 20260504140959 | 59 | 162 | 6.1 | 14.8 | 0.00 | 0.00 | 0.00 | 52 | 1012.9 |
| 20260504130349 | 55 | 93 | 4.3 | 11.3 | 0.00 | 0.00 | 0.00 | 58 | 1012.4 |
| 20260504120214 | 55 | 126 | 1.7 | 5.2 | 0.00 | 0.00 | 0.00 | 59 | 1012.4 |
| 20260504081319 | 65 | 113 | 2.6 | 8.7 | 0.00 | 0.00 | 0.00 | 35 | 1011.3 |
| 20260504080444 | 65 | 121 | 3.5 | 8.7 | 0.00 | 0.00 | 0.00 | 35 | 1011.2 |
| 20260504070202 | 65 | 144 | 2.6 | 11.3 | 0.00 | 0.00 | 0.00 | 32 | 1011.0 |